Davis, Illinois
Current Conditions -  °F | °C
As of 10:55 AM on Saturday 22 Nov 2014 (Local Time) from KFEP Reporting Station
Haze Haze  
Wind Chill: 34°   Ceiling: 300
Heat Index: 42°   Visibility: 1mi
Dew Point: 41°   Wind: 16mph
Humidity: 97%   Direction: 200°SSW
Pressure: 29.91"   Gusts: NA
Location:  42.42°N, 89.41°W
Report Text: KFEP 221655Z AUTO 20014KT 1SM BR OVC003 06/05 A2991 RMK AO2 T00550051
Loading
Personal Weather Stations






























Interactive Weather Map New forecast layout! Learn more

10-Day Weather Forecast

Advertisements
Track Severe Weather on mobile